Time;durP1;ratioP1;P1;durP2;ratioP2;P2;SDS_P1;SDS_P2;PMS_P1;PMS_P2;Temp;Humidity;BMP_temperature;BMP_pressure;BME280_temperature;BME280_humidity;BME280_pressure;Samples;Min_cycle;Max_cycle;Signal;HPM_P1;HPM_P2
2021/05/31 00:00:21;;;;;;;9.13;6.35;;;13.60;90.80;;;;;;4722581;30;20044;-81
2021/05/31 00:02:49;;;;;;;15.15;7.97;;;13.50;90.90;;;;;;4725667;30;20048;-81
2021/05/31 00:05:22;;;;;;;10.75;7.50;;;13.60;91.10;;;;;;4744169;30;20047;-83
2021/05/31 00:07:48;;;;;;;12.15;7.00;;;13.50;91.30;;;;;;4746988;30;20044;-84
2021/05/31 00:10:15;;;;;;;13.57;8.93;;;13.50;91.60;;;;;;4722179;30;20055;-84
2021/05/31 00:12:41;;;;;;;12.70;7.60;;;13.50;91.70;;;;;;4744525;30;20067;-84
2021/05/31 00:15:08;;;;;;;12.50;7.30;;;13.40;91.70;;;;;;4741948;30;20059;-83
2021/05/31 00:17:36;;;;;;;9.85;6.80;;;13.40;91.90;;;;;;4735590;30;20040;-83
2021/05/31 00:20:06;;;;;;;15.95;8.05;;;13.40;91.90;;;;;;4722499;30;20055;-82
2021/05/31 00:22:32;;;;;;;15.45;8.35;;;13.40;92.30;;;;;;4729906;30;20048;-81
2021/05/31 00:24:59;;;;;;;14.77;7.57;;;13.30;92.40;;;;;;4730163;30;20052;-81
2021/05/31 00:27:26;;;;;;;9.30;6.63;;;13.30;92.40;;;;;;4729197;30;20055;-82
2021/05/31 00:29:53;;;;;;;27.48;20.75;;;13.30;92.40;;;;;;4728331;30;20052;-82
2021/05/31 00:32:19;;;;;;;41.38;28.38;;;13.30;92.50;;;;;;4745828;30;20048;-80
2021/05/31 00:34:46;;;;;;;19.23;12.95;;;13.30;92.70;;;;;;4735520;30;20435;-83
2021/05/31 00:37:14;;;;;;;15.38;10.13;;;13.20;92.90;;;;;;4745050;30;20061;-84
2021/05/31 00:39:40;;;;;;;12.60;9.02;;;13.20;93.00;;;;;;4729755;30;20412;-83
2021/05/31 00:42:08;;;;;;;10.95;9.68;;;13.20;93.20;;;;;;4748456;30;20522;-84
2021/05/31 00:44:35;;;;;;;13.90;8.75;;;13.20;93.50;;;;;;4748513;30;20047;-83
2021/05/31 00:47:01;;;;;;;19.60;10.45;;;13.10;93.40;;;;;;4740350;30;20059;-83
2021/05/31 00:49:35;;;;;;;19.10;10.35;;;13.10;93.80;;;;;;4748767;30;20048;-83
2021/05/31 00:52:04;;;;;;;21.65;10.73;;;13.10;94.00;;;;;;4748866;30;20481;-83
2021/05/31 00:54:30;;;;;;;16.63;10.50;;;13.10;94.30;;;;;;4747300;30;20872;-83
2021/05/31 00:56:57;;;;;;;12.18;8.90;;;13.00;94.30;;;;;;4748537;30;20051;-83
2021/05/31 00:59:24;;;;;;;12.02;9.18;;;13.00;94.40;;;;;;4733931;30;20045;-83
2021/05/31 01:01:51;;;;;;;16.45;10.05;;;13.00;94.50;;;;;;4746646;30;20477;-83
2021/05/31 01:04:19;;;;;;;14.93;10.18;;;13.00;94.70;;;;;;4747267;30;20050;-83
2021/05/31 01:07:01;;;;;;;13.50;8.95;;;13.00;94.70;;;;;;4747641;30;20055;-83
2021/05/31 01:09:45;;;;;;;14.88;9.43;;;12.90;94.80;;;;;;4747328;30;20040;-83
2021/05/31 01:12:39;;;;;;;13.57;8.00;;;12.90;94.70;;;;;;4724089;30;20145;-83
2021/05/31 01:15:18;;;;;;;19.30;10.32;;;12.90;94.70;;;;;;4726236;30;20043;-83
2021/05/31 01:18:22;;;;;;;17.75;12.10;;;12.90;94.90;;;;;;4748468;30;20040;-84
2021/05/31 01:21:02;;;;;;;16.48;9.75;;;12.90;95.20;;;;;;4725500;30;20051;-83
2021/05/31 01:23:32;;;;;;;15.52;11.02;;;12.90;95.10;;;;;;4747223;30;20063;-83
2021/05/31 01:26:05;;;;;;;16.20;10.48;;;12.80;95.30;;;;;;4731724;30;20051;-84
2021/05/31 01:28:51;;;;;;;18.75;11.98;;;12.80;95.30;;;;;;4746646;30;20056;-81
2021/05/31 01:31:24;;;;;;;17.83;10.25;;;12.70;95.60;;;;;;4747539;30;20052;-81
2021/05/31 01:33:53;;;;;;;17.83;11.27;;;12.70;95.50;;;;;;4724052;30;20055;-81
2021/05/31 01:36:22;;;;;;;18.88;10.30;;;12.70;95.70;;;;;;4745923;30;20059;-82
2021/05/31 01:38:51;;;;;;;15.63;11.02;;;12.70;95.70;;;;;;4731460;30;20040;-81
2021/05/31 01:41:19;;;;;;;18.45;11.68;;;12.70;95.80;;;;;;4744969;30;20927;-82
2021/05/31 01:43:47;;;;;;;17.38;11.48;;;12.60;96.00;;;;;;4748854;30;20048;-82
2021/05/31 01:46:14;;;;;;;18.27;10.85;;;12.60;96.20;;;;;;4745882;30;20047;-81
2021/05/31 01:48:42;;;;;;;19.90;12.75;;;12.60;96.20;;;;;;4731679;30;20063;-82
2021/05/31 01:51:09;;;;;;;16.15;12.05;;;12.60;96.60;;;;;;4746534;30;20041;-81
2021/05/31 01:53:36;;;;;;;22.02;12.93;;;12.60;96.60;;;;;;4747878;30;20048;-81
2021/05/31 01:56:03;;;;;;;18.98;11.57;;;12.50;96.80;;;;;;4745774;30;20040;-82
2021/05/31 01:58:30;;;;;;;19.23;11.27;;;12.50;96.80;;;;;;4748011;30;20948;-82
2021/05/31 02:00:57;;;;;;;18.48;9.90;;;12.50;96.80;;;;;;4732007;30;20036;-82
2021/05/31 02:03:24;;;;;;;17.48;11.48;;;12.50;96.80;;;;;;4746670;30;20064;-82
2021/05/31 02:05:51;;;;;;;15.82;10.02;;;12.50;96.90;;;;;;4730551;30;20048;-82
2021/05/31 02:08:17;;;;;;;21.50;12.77;;;12.50;96.80;;;;;;4732957;30;20171;-82
2021/05/31 02:10:46;;;;;;;21.55;12.65;;;12.40;97.00;;;;;;4730395;30;20060;-82
2021/05/31 02:13:15;;;;;;;20.83;14.00;;;12.40;97.10;;;;;;4744172;30;20528;-82
2021/05/31 02:15:49;;;;;;;22.27;13.30;;;12.40;97.20;;;;;;4731083;30;20048;-83
2021/05/31 02:18:26;;;;;;;17.67;11.93;;;12.40;97.20;;;;;;4747891;30;20520;-82
2021/05/31 02:21:03;;;;;;;17.90;14.15;;;12.30;97.30;;;;;;4748281;30;20040;-82
2021/05/31 02:23:31;;;;;;;20.38;13.68;;;12.30;97.50;;;;;;4732275;30;20061;-82
2021/05/31 02:25:58;;;;;;;20.50;13.88;;;12.30;97.40;;;;;;4739062;30;20048;-82
2021/05/31 02:28:26;;;;;;;18.92;13.10;;;12.30;97.50;;;;;;4732210;30;20052;-82
2021/05/31 02:30:53;;;;;;;15.73;11.48;;;12.20;97.50;;;;;;4733447;30;20044;-82
2021/05/31 02:33:24;;;;;;;19.83;13.10;;;12.20;97.50;;;;;;4746656;30;20060;-82
2021/05/31 02:35:51;;;;;;;18.35;12.05;;;12.20;97.60;;;;;;4746775;30;20044;-82
2021/05/31 02:38:18;;;;;;;17.17;12.13;;;12.10;98.00;;;;;;4732043;30;20770;-82
2021/05/31 02:40:45;;;;;;;18.98;13.27;;;12.10;97.80;;;;;;4730644;30;20048;-82
2021/05/31 02:43:12;;;;;;;17.02;11.98;;;12.10;97.80;;;;;;4747912;30;20759;-82
2021/05/31 02:45:39;;;;;;;24.15;14.80;;;12.10;97.80;;;;;;4732022;30;20040;-82
2021/05/31 02:48:07;;;;;;;19.48;13.52;;;12.10;97.90;;;;;;4731687;30;20060;-82
2021/05/31 02:50:33;;;;;;;21.27;12.85;;;12.00;97.90;;;;;;4729640;30;20914;-82
2021/05/31 02:53:00;;;;;;;17.02;12.32;;;12.00;97.90;;;;;;4746548;30;20075;-81
2021/05/31 02:55:28;;;;;;;20.35;12.02;;;12.00;97.90;;;;;;4745498;30;20044;-82
2021/05/31 02:57:55;;;;;;;19.30;12.77;;;11.90;97.90;;;;;;4747711;30;20044;-82
2021/05/31 03:00:25;;;;;;;27.83;16.30;;;11.90;97.90;;;;;;4717285;30;20048;-82
2021/05/31 03:02:52;;;;;;;17.63;11.55;;;11.90;97.90;;;;;;4746402;30;20055;-82
2021/05/31 03:05:26;;;;;;;17.98;11.93;;;11.90;98.20;;;;;;4745450;30;20499;-82
2021/05/31 03:07:52;;;;;;;19.20;13.50;;;11.90;97.90;;;;;;4746940;30;20497;-82
2021/05/31 03:10:19;;;;;;;19.60;13.07;;;11.90;97.90;;;;;;4731410;30;20499;-82
2021/05/31 03:12:46;;;;;;;23.38;14.18;;;11.80;97.90;;;;;;4730712;30;20122;-82
2021/05/31 03:15:18;;;;;;;17.60;13.57;;;11.80;98.00;;;;;;4744146;30;20036;-81
2021/05/31 03:17:45;;;;;;;18.08;14.07;;;11.80;98.00;;;;;;4730216;30;20059;-80
2021/05/31 03:20:13;;;;;;;19.83;12.68;;;11.80;98.10;;;;;;4730661;30;20043;-82
2021/05/31 03:22:40;;;;;;;18.85;11.07;;;11.80;98.10;;;;;;4747216;30;20053;-83
2021/05/31 03:25:08;;;;;;;28.38;18.63;;;11.70;98.00;;;;;;4730866;30;20048;-83
2021/05/31 03:27:35;;;;;;;41.28;28.15;;;11.70;98.10;;;;;;4745792;30;20052;-82
2021/05/31 03:30:04;;;;;;;26.60;18.85;;;11.70;98.10;;;;;;4721432;30;20055;-81
2021/05/31 03:32:31;;;;;;;22.73;15.20;;;11.70;98.10;;;;;;4745900;30;20063;-82
2021/05/31 03:34:57;;;;;;;18.77;13.85;;;11.70;98.20;;;;;;4730254;30;20127;-81
2021/05/31 03:37:24;;;;;;;21.80;13.70;;;11.70;98.20;;;;;;4730897;30;20048;-81
2021/05/31 03:39:51;;;;;;;23.17;16.92;;;11.60;98.20;;;;;;4745839;30;20048;-82
2021/05/31 03:42:18;;;;;;;19.30;13.95;;;11.60;98.30;;;;;;4734903;30;20032;-82
2021/05/31 03:44:44;;;;;;;20.58;13.95;;;11.60;98.40;;;;;;4730435;30;20133;-81
2021/05/31 03:47:11;;;;;;;20.02;14.52;;;11.60;98.40;;;;;;4723946;30;20067;-82
2021/05/31 03:49:37;;;;;;;20.52;13.50;;;11.50;98.50;;;;;;4745601;30;20055;-82
2021/05/31 03:52:04;;;;;;;16.95;13.35;;;11.60;98.50;;;;;;4746422;30;20063;-82
2021/05/31 03:54:31;;;;;;;19.48;13.15;;;11.50;98.50;;;;;;4728764;30;20942;-81
2021/05/31 03:56:57;;;;;;;19.75;13.50;;;11.60;98.60;;;;;;4710731;30;20036;-81
2021/05/31 03:59:25;;;;;;;21.70;15.20;;;11.60;98.60;;;;;;4737333;30;20513;-81
2021/05/31 04:01:52;;;;;;;20.75;14.98;;;11.60;98.60;;;;;;4730809;30;20040;-81
2021/05/31 04:04:20;;;;;;;20.05;14.90;;;11.60;98.60;;;;;;4746374;30;20047;-82
2021/05/31 04:12:00;;;;;;;24.55;18.52;;;11.60;98.80;;;;;;4718084;30;20048;-81
2021/05/31 04:14:26;;;;;;;18.33;15.10;;;11.70;98.90;;;;;;4729689;30;20496;-81
2021/05/31 04:16:55;;;;;;;20.95;14.57;;;11.70;98.90;;;;;;4745529;30;20063;-81
2021/05/31 04:19:24;;;;;;;22.77;15.27;;;11.80;98.90;;;;;;4738165;30;20511;-80
2021/05/31 04:21:52;;;;;;;19.98;13.75;;;11.80;98.80;;;;;;4731103;30;20052;-81
2021/05/31 04:24:19;;;;;;;19.75;13.23;;;11.90;98.70;;;;;;4736430;30;20094;-81
2021/05/31 04:26:46;;;;;;;22.00;15.85;;;11.90;98.60;;;;;;4744276;30;20043;-81
2021/05/31 04:29:15;;;;;;;21.45;15.30;;;12.00;98.50;;;;;;4746250;30;20055;-78
2021/05/31 04:31:42;;;;;;;23.08;16.52;;;12.10;98.50;;;;;;4743460;30;20509;-80
2021/05/31 04:34:12;;;;;;;21.35;15.50;;;12.20;98.40;;;;;;4745815;30;20052;-80
2021/05/31 04:36:40;;;;;;;24.45;15.25;;;12.30;98.20;;;;;;4744548;30;20519;-80
2021/05/31 04:39:08;;;;;;;21.83;15.35;;;12.40;98.10;;;;;;4729313;30;20063;-81
2021/05/31 04:41:36;;;;;;;25.17;15.70;;;12.50;97.90;;;;;;4744413;30;20055;-81
2021/05/31 04:44:04;;;;;;;16.70;11.98;;;12.60;97.80;;;;;;4745829;30;20056;-80
2021/05/31 04:46:30;;;;;;;21.20;14.98;;;12.70;97.60;;;;;;4744098;30;20055;-80
2021/05/31 04:49:00;;;;;;;15.85;12.98;;;12.80;97.50;;;;;;4746620;30;20048;-80
2021/05/31 04:51:27;;;;;;;20.63;13.40;;;12.90;97.30;;;;;;4731284;30;20501;-80
2021/05/31 04:53:56;;;;;;;16.60;12.70;;;13.00;97.10;;;;;;4746184;30;20051;-80
2021/05/31 04:56:24;;;;;;;20.42;14.23;;;13.10;96.90;;;;;;4722684;30;20044;-80
2021/05/31 04:58:51;;;;;;;25.02;15.32;;;13.30;96.70;;;;;;4730123;30;20048;-80
2021/05/31 05:01:18;;;;;;;18.50;13.48;;;13.40;96.50;;;;;;4737184;30;20446;-79
2021/05/31 05:03:44;;;;;;;19.45;15.25;;;13.50;96.40;;;;;;4736654;30;20047;-79
2021/05/31 05:06:11;;;;;;;19.75;14.45;;;13.60;96.20;;;;;;4719013;30;20044;-79
2021/05/31 05:08:38;;;;;;;19.52;14.05;;;13.70;95.90;;;;;;4744255;30;20071;-80
2021/05/31 05:11:04;;;;;;;15.20;11.30;;;13.90;95.70;;;;;;4745026;30;20087;-80
2021/05/31 05:13:31;;;;;;;18.13;13.43;;;14.00;95.50;;;;;;4744377;30;20068;-80
2021/05/31 05:15:57;;;;;;;17.52;12.05;;;14.20;95.20;;;;;;4735483;30;20056;-80
2021/05/31 05:18:24;;;;;;;15.00;11.32;;;14.30;95.00;;;;;;4729407;30;20044;-81
2021/05/31 05:20:50;;;;;;;15.13;11.93;;;14.40;94.70;;;;;;4720477;30;20039;-80
2021/05/31 05:23:17;;;;;;;17.13;13.02;;;14.60;94.60;;;;;;4729254;30;20052;-81
2021/05/31 05:25:45;;;;;;;16.95;11.75;;;14.80;94.40;;;;;;4727941;30;20508;-82
2021/05/31 05:28:13;;;;;;;15.10;11.05;;;14.90;94.10;;;;;;4716321;30;20394;-80
2021/05/31 05:30:39;;;;;;;14.65;10.00;;;15.10;93.80;;;;;;4726857;30;20059;-79
2021/05/31 05:33:06;;;;;;;15.98;11.05;;;15.20;93.60;;;;;;4745573;30;20052;-81
2021/05/31 05:35:39;;;;;;;16.80;12.30;;;15.40;93.30;;;;;;4717472;30;20052;-80
2021/05/31 05:41:04;;;;;;;31.90;24.60;;;15.80;92.60;;;;;;4718168;30;20102;-78
2021/05/31 05:48:32;;;;;;;14.50;11.30;;;16.20;91.70;;;;;;4730770;30;20059;-81
2021/05/31 05:51:08;;;;;;;11.18;9.40;;;16.40;91.60;;;;;;4717062;30;20077;-80
2021/05/31 05:53:36;;;;;;;12.27;8.95;;;16.50;91.40;;;;;;4731065;30;20055;-80
2021/05/31 05:56:06;;;;;;;12.82;9.68;;;16.70;91.20;;;;;;4698793;30;20822;-80
2021/05/31 05:58:32;;;;;;;13.18;10.32;;;16.90;90.90;;;;;;4731710;30;20416;-80
2021/05/31 06:01:00;;;;;;;10.95;9.00;;;17.10;90.50;;;;;;4723492;30;20047;-80
2021/05/31 06:03:27;;;;;;;11.57;8.30;;;17.30;90.30;;;;;;4723884;30;20052;-80
2021/05/31 06:05:55;;;;;;;12.82;8.43;;;17.60;90.00;;;;;;4720569;30;20055;-80
2021/05/31 06:08:22;;;;;;;12.43;7.80;;;17.80;89.10;;;;;;4736356;30;20063;-80
2021/05/31 06:10:49;;;;;;;11.75;8.80;;;18.00;88.90;;;;;;4730552;30;20040;-80
2021/05/31 06:13:19;;;;;;;14.05;8.27;;;18.20;87.80;;;;;;4726171;30;20064;-80
2021/05/31 06:15:46;;;;;;;14.35;8.90;;;18.60;87.10;;;;;;4744795;30;20052;-79
2021/05/31 06:18:12;;;;;;;13.80;8.85;;;18.90;84.40;;;;;;4744008;30;20064;-78
2021/05/31 06:20:39;;;;;;;12.85;9.50;;;19.10;83.90;;;;;;4746274;30;20040;-81
2021/05/31 06:23:08;;;;;;;9.30;8.13;;;19.30;83.00;;;;;;4721123;30;20044;-82
2021/05/31 06:25:36;;;;;;;12.45;8.35;;;19.50;82.40;;;;;;4726598;30;20056;-81
2021/05/31 06:28:05;;;;;;;12.95;8.98;;;19.60;81.10;;;;;;4734217;30;20055;-81
2021/05/31 06:30:31;;;;;;;12.80;8.25;;;19.60;80.40;;;;;;4746206;30;20055;-81
2021/05/31 06:32:58;;;;;;;10.10;7.45;;;19.50;80.20;;;;;;4731029;30;20568;-81
2021/05/31 06:35:26;;;;;;;14.75;8.07;;;19.50;80.00;;;;;;4713510;30;20051;-81
2021/05/31 06:37:53;;;;;;;9.90;7.82;;;19.40;79.80;;;;;;4728343;30;20048;-81
2021/05/31 06:40:20;;;;;;;12.40;9.13;;;19.50;79.60;;;;;;4716755;30;20039;-81
2021/05/31 06:42:49;;;;;;;14.52;8.55;;;19.50;79.50;;;;;;4745194;30;20043;-80
2021/05/31 06:45:24;;;;;;;10.52;7.35;;;19.60;79.10;;;;;;4745307;30;20043;-81
2021/05/31 06:47:51;;;;;;;12.30;6.97;;;19.70;79.10;;;;;;4729441;30;20044;-81
2021/05/31 06:50:19;;;;;;;11.07;7.55;;;19.80;79.30;;;;;;4721016;30;20056;-81
2021/05/31 06:52:46;;;;;;;11.90;7.95;;;19.90;79.10;;;;;;4730976;30;20056;-81
2021/05/31 06:55:13;;;;;;;12.20;7.60;;;20.10;78.80;;;;;;4728784;30;20055;-81
2021/05/31 06:57:40;;;;;;;12.40;7.22;;;20.20;78.70;;;;;;4730861;30;20044;-81
2021/05/31 07:00:12;;;;;;;13.40;8.07;;;20.40;78.50;;;;;;4730850;30;20040;-81
2021/05/31 07:02:39;;;;;;;13.40;6.97;;;20.50;77.90;;;;;;4731187;30;20044;-81
2021/05/31 07:05:08;;;;;;;12.15;7.90;;;20.60;77.90;;;;;;4729280;30;20044;-81
2021/05/31 07:07:39;;;;;;;12.95;7.85;;;20.60;77.30;;;;;;4747566;30;20052;-79
2021/05/31 07:10:07;;;;;;;14.65;7.75;;;20.80;77.30;;;;;;4704269;30;20048;-80
2021/05/31 07:12:34;;;;;;;12.35;7.30;;;20.90;76.70;;;;;;4730779;30;20425;-81
2021/05/31 07:15:04;;;;;;;10.13;6.30;;;21.00;75.90;;;;;;4709699;30;20425;-81
2021/05/31 07:17:33;;;;;;;12.50;7.68;;;20.90;75.90;;;;;;4744165;30;20497;-81
2021/05/31 07:20:01;;;;;;;9.40;5.95;;;20.90;75.90;;;;;;4743855;30;20473;-81
2021/05/31 07:22:28;;;;;;;15.40;10.35;;;21.00;75.80;;;;;;4721691;30;20378;-81
2021/05/31 07:24:54;;;;;;;10.27;6.53;;;21.10;75.40;;;;;;4729309;30;20055;-81
2021/05/31 07:27:21;;;;;;;14.90;8.30;;;21.20;75.10;;;;;;4729128;30;20056;-80
2021/05/31 07:29:48;;;;;;;11.63;5.30;;;21.20;74.80;;;;;;4733206;30;20056;-81
2021/05/31 07:32:15;;;;;;;8.77;6.10;;;21.20;75.00;;;;;;4732120;30;20047;-81
2021/05/31 07:34:42;;;;;;;12.02;8.20;;;21.30;74.70;;;;;;4713905;30;20548;-82
2021/05/31 07:37:08;;;;;;;11.93;7.47;;;21.50;74.40;;;;;;4729778;30;20488;-81
2021/05/31 07:39:35;;;;;;;11.52;7.00;;;21.50;74.40;;;;;;4745217;30;20044;-81
2021/05/31 07:42:03;;;;;;;10.18;6.32;;;21.70;74.50;;;;;;4730546;30;20668;-81
2021/05/31 07:44:30;;;;;;;11.25;5.90;;;21.90;73.50;;;;;;4716033;30;20059;-81
2021/05/31 07:46:56;;;;;;;10.30;5.90;;;22.10;73.40;;;;;;4723619;30;21429;-81
2021/05/31 07:49:23;;;;;;;10.70;6.03;;;22.20;72.80;;;;;;4743660;30;20059;-81
2021/05/31 07:51:52;;;;;;;12.43;6.25;;;22.30;72.20;;;;;;4704357;30;20060;-81
2021/05/31 07:54:20;;;;;;;10.82;5.22;;;22.40;72.10;;;;;;4728847;30;20048;-81
2021/05/31 07:56:47;;;;;;;9.75;5.60;;;22.50;72.00;;;;;;4721425;30;20047;-81
2021/05/31 07:59:14;;;;;;;7.70;5.22;;;22.60;71.60;;;;;;4745556;30;20056;-81
2021/05/31 08:01:40;;;;;;;5.70;4.45;;;22.80;71.50;;;;;;4716269;30;20488;-81
2021/05/31 08:04:07;;;;;;;10.88;5.30;;;22.90;70.90;;;;;;4729789;30;20486;-81
2021/05/31 08:06:35;;;;;;;11.43;5.32;;;23.00;70.20;;;;;;4742804;30;20055;-81
2021/05/31 08:09:02;;;;;;;8.18;4.90;;;23.10;69.80;;;;;;4744830;30;20079;-81
2021/05/31 08:11:29;;;;;;;6.65;5.00;;;23.20;69.20;;;;;;4730543;30;20382;-81
2021/05/31 08:13:55;;;;;;;10.30;6.20;;;23.30;69.10;;;;;;4720825;30;20060;-81
2021/05/31 08:16:22;;;;;;;10.77;6.20;;;23.30;68.40;;;;;;4725869;30;20040;-84
2021/05/31 08:18:49;;;;;;;11.70;7.25;;;23.20;68.70;;;;;;4717529;30;20489;-84
2021/05/31 08:21:15;;;;;;;10.90;7.65;;;23.30;69.50;;;;;;4727577;30;20071;-84
2021/05/31 08:23:43;;;;;;;10.52;7.43;;;23.50;69.50;;;;;;4727739;30;20048;-84
2021/05/31 08:26:09;;;;;;;10.25;5.30;;;23.60;69.20;;;;;;4711310;30;20043;-83
2021/05/31 08:28:39;;;;;;;8.90;5.38;;;23.60;67.90;;;;;;4728533;30;20052;-84
2021/05/31 08:31:05;;;;;;;7.47;3.90;;;23.60;66.00;;;;;;4717446;30;20499;-85
2021/05/31 08:33:32;;;;;;;9.23;4.90;;;23.60;65.10;;;;;;4701569;30;20052;-81
2021/05/31 08:35:59;;;;;;;6.90;4.57;;;23.70;65.70;;;;;;4714028;30;20041;-84
2021/05/31 08:38:26;;;;;;;4.35;3.85;;;23.80;65.40;;;;;;4733997;30;20058;-85
2021/05/31 08:40:52;;;;;;;4.95;3.63;;;23.80;64.80;;;;;;4717010;30;20057;-85
2021/05/31 08:43:19;;;;;;;6.57;4.00;;;23.90;64.70;;;;;;4716575;30;20391;-85
2021/05/31 08:45:45;;;;;;;4.60;3.75;;;23.90;63.90;;;;;;4729653;30;20053;-85
2021/05/31 08:48:12;;;;;;;7.63;5.60;;;24.10;64.00;;;;;;4688604;30;20064;-84
2021/05/31 08:50:39;;;;;;;7.78;4.30;;;24.10;64.30;;;;;;4727045;30;20076;-87
2021/05/31 08:53:07;;;;;;;8.40;4.65;;;24.20;63.20;;;;;;4728868;30;20056;-86
2021/05/31 08:55:34;;;;;;;6.30;5.28;;;24.30;63.50;;;;;;4723142;30;20059;-84
2021/05/31 08:58:02;;;;;;;6.75;5.93;;;24.30;63.30;;;;;;4726914;30;20040;-86
2021/05/31 09:00:31;;;;;;;7.78;5.07;;;24.40;63.40;;;;;;4728258;30;20052;-86
2021/05/31 09:03:04;;;;;;;6.82;4.03;;;24.50;63.60;;;;;;4730813;30;20472;-86
2021/05/31 09:05:39;;;;;;;6.05;3.58;;;24.50;63.00;;;;;;4718941;30;20056;-85
2021/05/31 09:08:16;;;;;;;7.32;4.97;;;24.60;62.90;;;;;;4725290;30;20048;-86
2021/05/31 09:10:47;;;;;;;5.93;5.00;;;24.80;62.70;;;;;;4729663;30;20052;-85
2021/05/31 09:13:39;;;;;;;6.05;4.90;;;25.00;62.40;;;;;;4738394;30;20079;-86
2021/05/31 09:16:20;;;;;;;6.50;4.50;;;25.00;61.70;;;;;;4738042;30;20390;-85
2021/05/31 09:19:03;;;;;;;5.72;4.03;;;25.00;59.10;;;;;;4747933;30;20904;-85
2021/05/31 09:21:31;;;;;;;6.60;4.68;;;25.00;59.30;;;;;;4747630;30;20036;-85
2021/05/31 09:24:04;;;;;;;5.20;4.05;;;25.00;60.10;;;;;;4748378;30;20036;-86
2021/05/31 09:26:42;;;;;;;4.68;3.58;;;25.20;59.30;;;;;;4745752;30;20055;-86
2021/05/31 09:29:09;;;;;;;5.95;3.33;;;25.30;58.60;;;;;;4732642;30;20048;-84
2021/05/31 09:31:35;;;;;;;6.05;3.00;;;25.40;56.70;;;;;;4732993;30;20040;-86
2021/05/31 09:34:07;;;;;;;5.22;3.50;;;25.40;55.10;;;;;;4747303;30;20060;-86
2021/05/31 09:36:46;;;;;;;;;;;25.40;55.70;;;;;;4746838;30;20412;-85
2021/05/31 09:39:12;;;;;;;5.82;3.83;;;25.50;56.30;;;;;;4742459;30;19918;-85
2021/05/31 09:41:39;;;;;;;5.25;3.65;;;25.60;55.80;;;;;;4744351;30;20048;-85
2021/05/31 09:44:08;;;;;;;4.68;3.35;;;25.50;55.80;;;;;;4748912;30;20052;-85
2021/05/31 09:46:45;;;;;;;4.45;3.20;;;25.60;56.50;;;;;;4746189;30;20052;-85
2021/05/31 09:49:17;;;;;;;4.25;2.55;;;25.70;56.90;;;;;;4745590;30;20533;-85
2021/05/31 09:51:57;;;;;;;5.50;4.00;;;25.90;57.00;;;;;;4746511;30;20374;-83
2021/05/31 09:54:33;;;;;;;8.25;3.63;;;26.00;55.60;;;;;;4747648;30;20067;-86
2021/05/31 09:57:12;;;;;;;6.03;3.05;;;25.90;55.00;;;;;;4745507;30;20051;-85
2021/05/31 09:59:40;;;;;;;4.32;2.90;;;25.90;54.00;;;;;;4739880;30;20049;-85
2021/05/31 10:02:08;;;;;;;4.35;2.83;;;25.80;53.60;;;;;;4739450;30;20049;-86
2021/05/31 10:10:04;;;;;;;5.10;2.65;;;25.90;52.60;;;;;;4705411;30;20062;-86
2021/05/31 10:12:31;;;;;;;4.68;2.92;;;25.70;52.50;;;;;;4730900;30;20051;-86
2021/05/31 10:14:58;;;;;;;4.10;2.80;;;25.80;53.30;;;;;;4744939;30;20772;-84
2021/05/31 10:17:25;;;;;;;5.38;3.35;;;25.90;53.50;;;;;;4745366;30;20501;-85
2021/05/31 10:19:51;;;;;;;3.75;2.60;;;26.10;53.10;;;;;;4735504;30;20044;-86
2021/05/31 10:22:18;;;;;;;4.43;2.70;;;26.20;52.00;;;;;;4746961;30;20060;-86
2021/05/31 10:24:48;;;;;;;8.60;3.00;;;26.20;51.30;;;;;;4722826;30;20056;-87
2021/05/31 10:27:15;;;;;;;4.38;2.58;;;26.20;50.70;;;;;;4721955;30;20044;-85
2021/05/31 10:29:44;;;;;;;3.97;2.63;;;26.20;51.00;;;;;;4748721;30;20060;-86
2021/05/31 10:32:12;;;;;;;4.35;2.38;;;26.30;49.50;;;;;;4731138;30;20044;-83
2021/05/31 10:34:44;;;;;;;5.25;3.20;;;26.20;51.60;;;;;;4729764;30;20060;-83
2021/05/31 10:37:18;;;;;;;3.35;2.53;;;26.30;50.30;;;;;;4728643;30;20048;-81
2021/05/31 10:39:55;;;;;;;4.05;3.10;;;26.50;51.10;;;;;;4740842;30;20048;-82
2021/05/31 10:42:23;;;;;;;4.93;2.58;;;26.70;51.20;;;;;;4711737;30;20040;-81
2021/05/31 10:44:50;;;;;;;3.40;2.83;;;26.70;51.10;;;;;;4738606;30;20048;-82
2021/05/31 10:47:25;;;;;;;6.55;3.47;;;26.80;50.00;;;;;;4739371;30;20425;-81
2021/05/31 10:49:56;;;;;;;4.78;2.55;;;27.00;50.00;;;;;;4744247;30;20400;-82
2021/05/31 10:52:23;;;;;;;4.97;3.13;;;27.20;49.70;;;;;;4740411;30;20059;-82
2021/05/31 10:54:50;;;;;;;4.90;2.85;;;27.50;49.40;;;;;;4714905;30;20118;-81
2021/05/31 10:57:18;;;;;;;4.10;2.10;;;27.50;47.90;;;;;;4742820;30;20055;-82
2021/05/31 10:59:54;;;;;;;5.22;2.05;;;27.60;48.30;;;;;;4726250;30;20059;-82
2021/05/31 11:02:26;;;;;;;24.73;21.05;;;28.00;48.70;;;;;;4742722;30;20045;-82
2021/05/31 11:05:07;;;;;;;5.18;4.25;;;28.40;48.00;;;;;;4741236;30;20058;-85
2021/05/31 11:07:35;;;;;;;3.85;2.58;;;28.80;47.30;;;;;;4727114;30;20169;-84
2021/05/31 11:10:17;;;;;;;4.13;2.50;;;29.20;46.10;;;;;;4734450;30;20412;-86
2021/05/31 11:12:45;;;;;;;5.05;2.30;;;29.40;45.20;;;;;;4743483;30;20048;-86
2021/05/31 11:15:14;;;;;;;4.80;2.90;;;29.50;44.70;;;;;;4743289;30;20067;-85
2021/05/31 11:17:51;;;;;;;3.80;3.10;;;29.60;44.40;;;;;;4727523;30;20099;-85
2021/05/31 11:20:22;;;;;;;3.67;2.97;;;29.80;44.30;;;;;;4744250;30;20519;-85
2021/05/31 11:23:03;;;;;;;5.78;2.15;;;29.90;42.80;;;;;;4731278;30;20520;-85
2021/05/31 11:25:31;;;;;;;3.70;1.73;;;29.90;42.50;;;;;;4729906;30;20048;-85
2021/05/31 11:28:03;;;;;;;5.35;3.33;;;30.00;41.30;;;;;;4735377;30;20064;-85
2021/05/31 11:30:33;;;;;;;6.05;3.78;;;29.70;41.30;;;;;;4746363;30;20036;-85
2021/05/31 11:33:03;;;;;;;3.47;2.47;;;29.40;43.40;;;;;;4737759;30;20527;-85
2021/05/31 11:35:31;;;;;;;4.80;2.95;;;29.40;42.90;;;;;;4743596;30;20044;-84
2021/05/31 11:37:58;;;;;;;3.42;2.53;;;29.20;42.20;;;;;;4738594;30;20044;-84
2021/05/31 11:40:35;;;;;;;4.15;3.10;;;29.00;42.90;;;;;;4730966;30;20492;-85
2021/05/31 11:43:04;;;;;;;4.82;3.92;;;29.30;43.40;;;;;;4746648;30;20059;-85
2021/05/31 11:45:39;;;;;;;4.85;3.33;;;29.50;43.10;;;;;;4744137;30;20060;-83
2021/05/31 11:48:09;;;;;;;4.68;2.80;;;29.20;42.50;;;;;;4730851;30;21328;-83
2021/05/31 11:50:40;;;;;;;3.45;2.65;;;29.10;42.50;;;;;;4719464;30;20052;-85
2021/05/31 11:53:12;;;;;;;5.83;4.27;;;29.40;41.70;;;;;;4746812;30;20055;-82
2021/05/31 11:55:39;;;;;;;4.70;2.95;;;29.60;40.80;;;;;;4744697;30;20044;-84
2021/05/31 11:58:07;;;;;;;4.38;2.92;;;29.10;42.20;;;;;;4734950;30;20056;-84
2021/05/31 12:00:41;;;;;;;4.70;2.97;;;29.30;42.60;;;;;;4745443;30;20043;-85
2021/05/31 12:03:19;;;;;;;3.50;2.60;;;29.80;42.10;;;;;;4746920;30;20036;-86
2021/05/31 12:05:46;;;;;;;3.70;2.38;;;30.40;41.40;;;;;;4718049;30;20059;-85
2021/05/31 12:08:14;;;;;;;4.95;2.50;;;30.80;40.60;;;;;;4746280;30;20062;-83
2021/05/31 12:10:44;;;;;;;5.05;2.15;;;31.30;39.40;;;;;;4743585;30;20056;-84
2021/05/31 12:13:13;;;;;;;3.67;2.20;;;31.50;37.80;;;;;;4746131;30;20531;-85
2021/05/31 12:15:40;;;;;;;2.92;2.22;;;31.50;37.70;;;;;;4744032;30;20044;-85
2021/05/31 12:18:20;;;;;;;4.15;2.03;;;31.80;37.70;;;;;;4744942;30;20044;-85
2021/05/31 12:20:47;;;;;;;2.78;1.52;;;32.10;37.10;;;;;;4719015;30;20048;-84
2021/05/31 12:23:19;;;;;;;5.63;2.05;;;32.40;35.20;;;;;;4709016;30;21339;-84
2021/05/31 12:25:45;;;;;;;4.60;2.30;;;32.40;34.10;;;;;;4742892;30;20055;-85
2021/05/31 12:28:12;;;;;;;2.72;1.50;;;32.40;34.50;;;;;;4721157;30;20048;-84
2021/05/31 12:30:44;;;;;;;3.05;1.75;;;32.50;35.00;;;;;;4731924;30;20047;-85
2021/05/31 12:33:12;;;;;;;4.60;1.85;;;32.70;34.40;;;;;;4746181;30;20044;-85
2021/05/31 12:35:39;;;;;;;3.20;1.65;;;32.70;34.20;;;;;;4718467;30;20516;-85
2021/05/31 12:38:06;;;;;;;2.58;1.50;;;33.00;34.30;;;;;;4741853;30;20052;-84
2021/05/31 12:40:35;;;;;;;2.45;1.30;;;33.30;33.50;;;;;;4747832;30;20450;-85
2021/05/31 12:43:03;;;;;;;3.47;1.60;;;33.50;31.90;;;;;;4735759;30;20036;-79
2021/05/31 12:45:30;;;;;;;5.88;5.05;;;33.50;32.00;;;;;;4745463;30;20040;-82
2021/05/31 12:47:57;;;;;;;3.92;2.40;;;33.50;32.00;;;;;;4720762;30;20378;-81
2021/05/31 12:50:23;;;;;;;4.75;2.92;;;33.60;32.50;;;;;;4730696;30;20390;-81
2021/05/31 12:52:50;;;;;;;3.42;2.17;;;34.00;32.80;;;;;;4746797;30;20122;-81
2021/05/31 12:55:24;;;;;;;3.38;1.88;;;34.30;32.10;;;;;;4744600;30;20052;-80
2021/05/31 12:57:52;;;;;;;4.57;2.95;;;34.70;32.00;;;;;;4749008;30;20059;-79
2021/05/31 13:00:27;;;;;;;3.85;2.67;;;34.60;31.30;;;;;;4701071;30;20497;-79
2021/05/31 13:02:58;;;;;;;4.72;3.63;;;34.50;32.70;;;;;;4745879;30;20826;-80
2021/05/31 13:05:29;;;;;;;5.45;4.95;;;34.70;32.30;;;;;;4727928;30;20049;-80